createdAt,value
2017-08-17T00:01:00.568Z,19.00
2017-08-17T00:03:28.802Z,18.90
2017-08-17T00:05:56.294Z,18.90
2017-08-17T00:08:23.848Z,18.90
2017-08-17T00:10:51.337Z,18.90
2017-08-17T00:13:42.730Z,18.90
2017-08-17T00:16:10.284Z,18.90
2017-08-17T00:18:37.845Z,18.80
2017-08-17T00:21:05.349Z,18.80
2017-08-17T00:23:32.815Z,18.80
2017-08-17T00:26:00.329Z,18.90
2017-08-17T00:28:28.598Z,18.80
2017-08-17T00:30:56.170Z,18.80
2017-08-17T00:33:24.403Z,18.70
2017-08-17T00:35:51.880Z,18.70
2017-08-17T00:38:19.454Z,18.70
2017-08-17T00:40:47.725Z,18.70
2017-08-17T00:43:15.280Z,18.60
2017-08-17T00:45:42.853Z,18.60
2017-08-17T00:48:10.413Z,18.60
2017-08-17T00:50:38.658Z,18.60
2017-08-17T00:53:06.132Z,18.60
2017-08-17T00:55:33.600Z,18.60
2017-08-17T00:58:01.158Z,18.50
2017-08-17T01:00:28.732Z,18.50
2017-08-17T01:02:57.013Z,18.50
2017-08-17T01:05:25.258Z,18.60
2017-08-17T01:07:52.747Z,18.60
2017-08-17T01:10:21.007Z,18.50
2017-08-17T01:12:49.282Z,18.50
2017-08-17T01:15:17.550Z,18.50
2017-08-17T01:17:45.116Z,18.50
2017-08-17T01:20:12.682Z,18.40
2017-08-17T01:22:40.949Z,18.50
2017-08-17T01:25:08.421Z,18.50
2017-08-17T01:27:36.686Z,18.40
2017-08-17T01:30:04.260Z,18.40
2017-08-17T01:32:32.521Z,18.50
2017-08-17T01:34:59.992Z,18.50
2017-08-17T01:37:28.234Z,18.40
2017-08-17T01:39:55.711Z,18.40
2017-08-17T01:42:23.185Z,18.40
2017-08-17T01:44:51.441Z,18.40
2017-08-17T01:47:27.544Z,18.40
2017-08-17T01:49:55.068Z,18.40
2017-08-17T01:52:23.296Z,18.40
2017-08-17T01:54:50.817Z,18.40
2017-08-17T01:57:19.074Z,18.40
2017-08-17T01:59:46.636Z,18.30
2017-08-17T02:02:14.877Z,18.40
2017-08-17T02:04:42.354Z,18.30
2017-08-17T02:07:09.820Z,18.30
2017-08-17T02:09:37.381Z,18.30
2017-08-17T02:12:04.950Z,18.00
2017-08-17T02:14:33.203Z,18.10
2017-08-17T02:17:00.673Z,18.10
2017-08-17T02:19:28.243Z,18.30
2017-08-17T02:21:56.476Z,18.20
2017-08-17T02:24:23.977Z,18.20
2017-08-17T02:26:52.249Z,18.20
2017-08-17T02:29:20.539Z,18.20
2017-08-17T02:31:48.780Z,18.20
2017-08-17T02:34:16.358Z,18.10
2017-08-17T02:36:43.932Z,18.00
2017-08-17T02:39:11.484Z,17.90
2017-08-17T02:41:39.779Z,18.00
2017-08-17T02:44:07.313Z,18.00
2017-08-17T02:46:34.794Z,18.00
2017-08-17T02:49:02.338Z,18.10
2017-08-17T02:51:30.609Z,17.90
2017-08-17T02:53:58.087Z,17.90
2017-08-17T02:56:26.447Z,17.90
2017-08-17T02:58:53.917Z,17.90
2017-08-17T03:01:22.156Z,17.90
2017-08-17T03:03:49.618Z,17.90
2017-08-17T03:06:17.200Z,18.00
2017-08-17T03:08:45.461Z,17.90
2017-08-17T03:11:12.951Z,17.90
2017-08-17T03:13:40.499Z,17.90
2017-08-17T03:16:08.839Z,17.90
2017-08-17T03:18:36.430Z,17.80
2017-08-17T03:21:04.701Z,17.80
2017-08-17T03:23:32.258Z,17.80
2017-08-17T03:25:59.823Z,17.80
2017-08-17T03:28:27.388Z,17.70
2017-08-17T03:30:55.629Z,17.70
2017-08-17T03:33:23.113Z,17.70
2017-08-17T03:35:50.689Z,17.80
2017-08-17T03:38:18.917Z,17.70
2017-08-17T03:40:46.401Z,17.70
2017-08-17T03:43:17.122Z,17.70
2017-08-17T03:45:44.608Z,17.70
2017-08-17T03:48:12.863Z,17.70
2017-08-17T03:50:40.460Z,17.70
2017-08-17T03:53:08.704Z,17.70
2017-08-17T03:55:36.269Z,17.70
2017-08-17T03:58:03.841Z,17.70
2017-08-17T04:00:32.105Z,17.70
2017-08-17T04:02:59.657Z,17.70
2017-08-17T04:05:27.234Z,17.70
2017-08-17T04:07:55.511Z,17.60
2017-08-17T04:10:23.786Z,17.50
2017-08-17T04:12:52.075Z,17.50
2017-08-17T04:15:20.342Z,17.40
2017-08-17T04:17:48.631Z,17.40
2017-08-17T04:20:16.873Z,17.40
2017-08-17T04:22:50.189Z,17.30
2017-08-17T04:25:24.708Z,17.50
2017-08-17T04:27:52.976Z,17.30
2017-08-17T04:33:11.030Z,17.20
2017-08-17T04:35:38.602Z,17.10
2017-08-17T04:38:11.898Z,17.40
2017-08-17T04:40:40.171Z,17.50
2017-08-17T04:43:08.437Z,17.60
2017-08-17T04:45:35.917Z,17.60
2017-08-17T04:48:04.186Z,17.70
2017-08-17T04:50:32.457Z,17.70
2017-08-17T04:53:00.748Z,17.80
2017-08-17T04:55:29.008Z,17.80
2017-08-17T04:58:14.211Z,17.80
2017-08-17T05:00:41.754Z,17.90
2017-08-17T05:03:10.027Z,18.00
2017-08-17T05:05:38.402Z,18.00
2017-08-17T05:08:06.670Z,18.10
2017-08-17T05:10:34.231Z,18.10
2017-08-17T05:13:01.794Z,18.00
2017-08-17T05:15:30.065Z,18.00
2017-08-17T05:20:50.695Z,18.00
2017-08-17T05:23:18.967Z,18.00
2017-08-17T05:25:47.260Z,18.00
2017-08-17T05:28:14.805Z,18.00
2017-08-17T05:30:43.067Z,18.10
2017-08-17T05:33:10.642Z,18.10
2017-08-17T05:35:38.903Z,18.20
2017-08-17T05:38:10.019Z,18.20
2017-08-17T05:40:37.506Z,18.20
2017-08-17T05:43:04.985Z,18.30
2017-08-17T05:45:33.239Z,18.30
2017-08-17T05:48:01.630Z,18.30
2017-08-17T05:50:29.902Z,18.30
2017-08-17T05:52:58.186Z,18.40
2017-08-17T05:55:26.455Z,18.40
2017-08-17T05:57:54.730Z,18.50
2017-08-17T06:00:23.109Z,18.50
2017-08-17T06:02:50.674Z,18.60
2017-08-17T06:05:18.916Z,18.70
2017-08-17T06:07:46.410Z,18.70
2017-08-17T06:10:14.648Z,18.90
2017-08-17T06:12:42.143Z,18.90
2017-08-17T06:15:10.378Z,19.10
2017-08-17T06:17:37.977Z,19.10
2017-08-17T06:20:06.231Z,19.30
2017-08-17T06:22:33.812Z,19.30
2017-08-17T06:25:02.124Z,19.60
2017-08-17T06:27:29.946Z,19.60
2017-08-17T06:29:58.193Z,20.00
2017-08-17T06:35:18.555Z,20.00
2017-08-17T06:37:46.066Z,20.10
2017-08-17T06:40:13.563Z,20.10
2017-08-17T06:42:41.926Z,20.30
2017-08-17T06:45:09.500Z,20.30
2017-08-17T06:47:37.768Z,20.50
2017-08-17T06:50:05.243Z,20.40
2017-08-17T06:52:32.752Z,20.50
2017-08-17T06:55:00.345Z,20.50
2017-08-17T06:57:28.596Z,20.60
2017-08-17T06:59:56.110Z,20.60
2017-08-17T07:02:23.647Z,20.70
2017-08-17T07:04:51.919Z,20.80
2017-08-17T07:07:20.197Z,20.80
2017-08-17T07:09:48.465Z,20.90
2017-08-17T07:12:17.665Z,20.90
2017-08-17T07:14:45.943Z,21.10
2017-08-17T07:17:14.202Z,21.20
2017-08-17T07:19:41.782Z,21.20
2017-08-17T07:22:10.021Z,21.30
2017-08-17T07:24:37.627Z,21.30
2017-08-17T07:27:05.122Z,21.40
2017-08-17T07:29:32.636Z,21.50
2017-08-17T07:32:00.901Z,21.50
2017-08-17T07:34:28.472Z,21.50
2017-08-17T07:36:56.751Z,21.70
2017-08-17T07:39:25.003Z,21.70
2017-08-17T07:41:52.488Z,21.70
2017-08-17T07:44:20.861Z,22.00
2017-08-17T07:46:49.108Z,22.00
2017-08-17T07:49:16.703Z,22.00
2017-08-17T07:51:44.992Z,22.20
2017-08-17T07:54:12.548Z,22.20
2017-08-17T07:56:40.038Z,22.20
2017-08-17T07:59:07.654Z,22.30
2017-08-17T08:01:35.931Z,22.40
2017-08-17T08:04:04.206Z,22.30
2017-08-17T08:06:32.478Z,22.40
2017-08-17T08:09:01.619Z,22.40
2017-08-17T08:11:29.230Z,22.40
2017-08-17T08:13:57.520Z,22.70
2017-08-17T08:16:25.787Z,22.70
2017-08-17T08:18:54.062Z,22.70
2017-08-17T08:21:22.334Z,22.90
2017-08-17T08:23:49.903Z,22.80
2017-08-17T08:26:18.181Z,23.00
2017-08-17T08:28:46.440Z,23.10
2017-08-17T08:31:13.944Z,23.10
2017-08-17T08:33:41.507Z,23.20
2017-08-17T08:36:09.009Z,23.30
2017-08-17T08:38:36.599Z,23.40
2017-08-17T08:41:04.864Z,23.50
2017-08-17T08:43:33.122Z,23.60
2017-08-17T08:46:00.690Z,23.50
2017-08-17T08:48:28.271Z,23.60
2017-08-17T08:50:56.573Z,23.70
2017-08-17T08:53:24.103Z,23.60
2017-08-17T08:55:52.371Z,23.90
2017-08-17T08:58:20.658Z,24.00
2017-08-17T09:00:48.908Z,24.10
2017-08-17T09:03:16.481Z,24.10
2017-08-17T09:05:44.774Z,24.30
2017-08-17T09:08:12.319Z,24.30
2017-08-17T09:10:40.597Z,24.40
2017-08-17T09:13:08.883Z,24.60
2017-08-17T09:15:37.164Z,24.70
2017-08-17T09:18:05.409Z,24.80
2017-08-17T09:20:33.011Z,24.80
2017-08-17T09:23:00.541Z,24.90
2017-08-17T09:25:28.822Z,25.10
2017-08-17T09:27:57.101Z,25.00
2017-08-17T09:30:25.375Z,25.20
2017-08-17T09:32:53.755Z,25.40
2017-08-17T09:35:22.071Z,25.30
2017-08-17T09:37:49.605Z,25.20
2017-08-17T09:40:17.871Z,25.50
2017-08-17T09:42:46.141Z,25.80
2017-08-17T09:45:14.415Z,25.90
2017-08-17T09:47:41.992Z,25.90
2017-08-17T09:50:09.538Z,26.00
2017-08-17T09:52:37.789Z,26.00
2017-08-17T09:55:05.371Z,26.00
2017-08-17T09:57:33.642Z,26.00
2017-08-17T10:00:01.210Z,26.00
2017-08-17T10:02:29.458Z,26.00
2017-08-17T10:04:57.042Z,25.90
2017-08-17T10:07:25.277Z,25.90
2017-08-17T10:09:52.761Z,25.90
2017-08-17T10:12:20.253Z,25.90
2017-08-17T10:14:48.504Z,25.80
2017-08-17T10:17:15.958Z,25.80
2017-08-17T10:19:43.536Z,25.90
2017-08-17T10:22:11.779Z,26.10
2017-08-17T10:24:39.366Z,26.10
2017-08-17T10:27:07.642Z,26.10
2017-08-17T10:29:35.928Z,26.10
2017-08-17T10:32:04.187Z,26.10
2017-08-17T10:34:32.467Z,25.90
2017-08-17T10:37:00.731Z,25.70
2017-08-17T10:39:28.193Z,25.70
2017-08-17T10:41:55.762Z,25.70
2017-08-17T10:44:24.040Z,25.90
2017-08-17T10:46:52.307Z,25.90
2017-08-17T10:49:19.880Z,25.80
2017-08-17T10:51:48.141Z,25.80
2017-08-17T10:54:15.635Z,25.80
2017-08-17T10:56:43.169Z,25.80
2017-08-17T10:59:11.456Z,25.90
2017-08-17T11:01:39.704Z,26.10
2017-08-17T11:06:59.881Z,26.10
2017-08-17T11:09:27.363Z,26.10
2017-08-17T11:11:54.938Z,26.20
2017-08-17T11:14:23.225Z,26.60
2017-08-17T11:16:51.499Z,26.60
2017-08-17T11:19:19.768Z,26.60
2017-08-17T11:21:47.332Z,26.60
2017-08-17T11:24:15.613Z,26.60
2017-08-17T11:26:43.891Z,26.70
2017-08-17T11:29:12.124Z,26.60
2017-08-17T11:31:39.634Z,26.60
2017-08-17T11:34:07.104Z,26.60
2017-08-17T11:36:34.592Z,26.50
2017-08-17T11:39:02.094Z,26.70
2017-08-17T11:41:30.335Z,26.90
2017-08-17T11:43:57.942Z,26.80
2017-08-17T11:46:26.211Z,26.80
2017-08-17T11:48:54.480Z,26.80
2017-08-17T11:51:22.239Z,26.90
2017-08-17T11:53:49.813Z,26.80
2017-08-17T11:56:18.091Z,26.80
2017-08-17T11:58:46.349Z,27.00
2017-08-17T12:01:13.821Z,26.90
2017-08-17T12:03:42.093Z,26.90
2017-08-17T12:06:10.466Z,26.90
2017-08-17T12:08:38.035Z,26.90
2017-08-17T12:11:06.317Z,27.20
2017-08-17T12:13:34.575Z,27.50
2017-08-17T12:16:02.137Z,27.50
2017-08-17T12:18:29.626Z,27.50
2017-08-17T12:20:57.122Z,27.50
2017-08-17T12:23:24.615Z,27.50
2017-08-17T12:25:52.858Z,27.40
2017-08-17T12:28:20.348Z,27.40
2017-08-17T12:30:48.612Z,27.40
2017-08-17T12:33:16.102Z,27.40
2017-08-17T12:35:43.586Z,27.50
2017-08-17T12:38:11.106Z,27.20
2017-08-17T12:40:39.373Z,27.40
2017-08-17T12:43:06.933Z,27.40
2017-08-17T12:45:35.180Z,27.40
2017-08-17T12:48:02.653Z,27.40
2017-08-17T12:50:30.240Z,27.50
2017-08-17T12:52:58.506Z,27.60
2017-08-17T12:55:26.797Z,27.60
2017-08-17T12:57:55.060Z,27.80
2017-08-17T13:00:23.299Z,27.80
2017-08-17T13:02:50.890Z,27.80
2017-08-17T13:05:19.175Z,27.80
2017-08-17T13:07:47.425Z,27.70
2017-08-17T13:10:14.902Z,27.70
2017-08-17T13:12:43.215Z,27.70
2017-08-17T13:15:10.750Z,27.60
2017-08-17T13:17:39.115Z,27.70
2017-08-17T13:20:06.584Z,27.70
2017-08-17T13:22:34.853Z,27.60
2017-08-17T13:25:03.127Z,27.60
2017-08-17T13:27:30.687Z,27.60
2017-08-17T13:29:58.938Z,27.50
2017-08-17T13:32:26.535Z,27.50
2017-08-17T13:34:54.800Z,26.90
2017-08-17T13:37:23.065Z,27.00
2017-08-17T13:39:50.613Z,27.00
2017-08-17T13:42:18.202Z,27.10
2017-08-17T13:44:59.482Z,26.90
2017-08-17T13:47:27.737Z,27.00
2017-08-17T13:49:55.313Z,27.00
2017-08-17T13:52:23.693Z,26.90
2017-08-17T13:54:51.925Z,26.90
2017-08-17T13:57:19.416Z,26.90
2017-08-17T13:59:46.890Z,26.90
2017-08-17T14:02:15.153Z,27.00
2017-08-17T14:04:42.720Z,27.00
2017-08-17T14:07:10.998Z,27.00
2017-08-17T14:09:39.266Z,27.10
2017-08-17T14:12:06.741Z,27.10
2017-08-17T14:14:35.921Z,27.30
2017-08-17T14:17:10.561Z,27.30
2017-08-17T14:19:38.803Z,27.40
2017-08-17T14:22:06.280Z,27.30
2017-08-17T14:24:33.771Z,27.40
2017-08-17T14:27:01.310Z,27.30
2017-08-17T14:29:29.573Z,27.00
2017-08-17T14:31:57.065Z,27.00
2017-08-17T14:34:24.558Z,26.90
2017-08-17T14:36:52.054Z,26.90
2017-08-17T14:39:20.298Z,27.00
2017-08-17T14:41:47.823Z,27.00
2017-08-17T14:44:15.349Z,27.00
2017-08-17T14:46:43.626Z,27.00
2017-08-17T14:49:11.885Z,27.10
2017-08-17T14:51:39.457Z,27.10
2017-08-17T14:54:07.728Z,27.30
2017-08-17T14:56:35.296Z,27.30
2017-08-17T14:59:03.635Z,27.50
2017-08-17T15:01:31.122Z,27.50
2017-08-17T15:03:58.686Z,27.60
2017-08-17T15:06:26.245Z,27.70
2017-08-17T15:08:54.560Z,27.70
2017-08-17T15:11:22.090Z,27.60
2017-08-17T15:13:50.361Z,27.60
2017-08-17T15:16:18.634Z,27.60
2017-08-17T15:18:46.914Z,27.60
2017-08-17T15:21:15.156Z,27.60
2017-08-17T15:23:42.650Z,27.60
2017-08-17T15:26:10.906Z,27.60
2017-08-17T15:42:04.530Z,27.30
2017-08-17T15:44:32.047Z,27.40
2017-08-17T15:46:59.600Z,27.30
2017-08-17T15:49:27.878Z,27.10
2017-08-17T15:51:59.829Z,27.00
2017-08-17T15:54:27.398Z,26.90
2017-08-17T15:56:55.669Z,26.90
2017-08-17T15:59:28.974Z,26.90
2017-08-17T16:01:56.479Z,26.90
2017-08-17T16:04:23.944Z,26.90
2017-08-17T16:06:51.543Z,27.00
2017-08-17T16:09:19.108Z,27.00
2017-08-17T16:11:46.699Z,27.20
2017-08-17T16:14:14.230Z,27.50
2017-08-17T16:16:42.498Z,28.10
2017-08-17T16:19:10.060Z,28.10
2017-08-17T16:21:37.606Z,28.20
2017-08-17T16:24:05.176Z,28.50
2017-08-17T16:26:33.451Z,29.00
2017-08-17T16:29:01.733Z,28.80
2017-08-17T16:31:29.291Z,28.80
2017-08-17T16:33:56.842Z,28.80
2017-08-17T16:36:25.162Z,28.80
2017-08-17T16:38:52.684Z,28.70
2017-08-17T16:41:20.920Z,28.70
2017-08-17T16:43:48.423Z,28.70
2017-08-17T16:46:16.700Z,28.50
2017-08-17T16:48:44.970Z,28.80
2017-08-17T16:51:13.250Z,28.70
2017-08-17T16:53:41.522Z,28.60
2017-08-17T16:56:09.811Z,28.30
2017-08-17T16:58:37.301Z,28.30
2017-08-17T17:01:04.779Z,28.10
2017-08-17T17:03:32.268Z,28.70
2017-08-17T17:05:59.738Z,30.10
2017-08-17T17:08:28.005Z,32.40
2017-08-17T17:10:55.571Z,32.30
2017-08-17T17:13:23.830Z,30.80
2017-08-17T17:15:51.330Z,30.80
2017-08-17T17:18:18.859Z,29.80
2017-08-17T17:20:46.409Z,29.00
2017-08-17T17:23:13.915Z,28.30
2017-08-17T17:25:41.443Z,27.80
2017-08-17T17:28:08.993Z,27.40
2017-08-17T17:30:36.569Z,27.00
2017-08-17T17:33:04.817Z,26.60
2017-08-17T17:35:32.402Z,26.60
2017-08-17T17:38:00.664Z,26.30
2017-08-17T17:40:28.914Z,26.20
2017-08-17T17:42:56.393Z,26.20
2017-08-17T17:45:23.971Z,26.20
2017-08-17T17:47:51.525Z,26.10
2017-08-17T17:50:19.091Z,26.00
2017-08-17T17:52:47.357Z,25.90
2017-08-17T17:55:15.604Z,25.80
2017-08-17T17:57:43.215Z,25.80
2017-08-17T18:00:10.746Z,25.70
2017-08-17T18:02:38.312Z,25.50
2017-08-17T18:05:05.827Z,25.30
2017-08-17T18:07:33.335Z,25.20
2017-08-17T18:10:01.597Z,25.00
2017-08-17T18:12:29.183Z,25.00
2017-08-17T18:14:56.732Z,24.90
2017-08-17T18:17:24.289Z,24.80
2017-08-17T18:19:52.551Z,24.70
2017-08-17T18:22:20.045Z,24.70
2017-08-17T18:24:48.557Z,24.70
2017-08-17T18:27:16.057Z,24.60
2017-08-17T18:29:50.909Z,24.50
2017-08-17T18:32:18.446Z,24.50
2017-08-17T18:34:46.005Z,24.40
2017-08-17T18:37:14.271Z,24.30
2017-08-17T18:39:41.842Z,24.20
2017-08-17T18:42:09.400Z,24.10
2017-08-17T18:44:36.962Z,24.10
2017-08-17T18:47:05.235Z,23.90
2017-08-17T18:49:32.793Z,23.80
2017-08-17T18:52:00.361Z,23.80
2017-08-17T18:54:27.933Z,23.80
2017-08-17T18:56:55.482Z,23.70
2017-08-17T18:59:23.731Z,23.50
2017-08-17T19:01:51.255Z,23.50
2017-08-17T19:04:18.777Z,23.30
2017-08-17T19:06:46.313Z,23.20
2017-08-17T19:09:13.883Z,23.10
2017-08-17T19:11:42.131Z,23.20
2017-08-17T19:14:09.734Z,23.20
2017-08-17T19:16:37.971Z,23.10
2017-08-17T19:19:05.575Z,23.10
2017-08-17T19:21:33.128Z,23.00
2017-08-17T19:24:00.687Z,23.00
2017-08-17T19:26:28.959Z,22.90
2017-08-17T19:28:57.234Z,22.90
2017-08-17T19:31:24.796Z,22.90
2017-08-17T19:33:53.087Z,22.80
2017-08-17T19:36:20.553Z,22.70
2017-08-17T19:38:48.058Z,22.60
2017-08-17T19:41:15.539Z,22.60
2017-08-17T19:43:43.112Z,22.50
2017-08-17T19:46:11.418Z,22.50
2017-08-17T19:48:38.938Z,22.50
2017-08-17T19:51:06.508Z,22.50
2017-08-17T19:53:34.754Z,22.40
2017-08-17T19:56:02.338Z,22.40
2017-08-17T19:58:29.891Z,22.50
2017-08-17T20:00:58.172Z,22.30
2017-08-17T20:03:26.439Z,22.30
2017-08-17T20:05:54.715Z,22.30
2017-08-17T20:08:22.291Z,22.20
2017-08-17T20:10:50.553Z,22.30
2017-08-17T20:13:18.113Z,22.30
2017-08-17T20:15:45.609Z,22.20
2017-08-17T20:18:13.076Z,22.10
2017-08-17T20:20:40.599Z,22.10
2017-08-17T20:23:08.068Z,21.90
2017-08-17T20:25:35.607Z,21.90
2017-08-17T20:28:03.863Z,21.80
2017-08-17T20:30:31.483Z,21.80
2017-08-17T20:32:58.969Z,21.60
2017-08-17T20:35:26.465Z,21.60
2017-08-17T20:37:54.729Z,21.50
2017-08-17T20:40:22.310Z,21.40
2017-08-17T20:42:49.797Z,21.40
2017-08-17T20:45:17.329Z,21.50
2017-08-17T20:47:44.883Z,21.60
2017-08-17T20:50:13.148Z,21.60
2017-08-17T20:52:40.637Z,21.60
2017-08-17T20:55:08.173Z,21.50
2017-08-17T20:57:35.734Z,21.50
2017-08-17T21:00:04.000Z,21.40
2017-08-17T21:02:32.282Z,21.50
2017-08-17T21:04:59.843Z,21.40
2017-08-17T21:07:27.308Z,21.40
2017-08-17T21:09:55.570Z,21.30
2017-08-17T21:12:23.812Z,21.20
2017-08-17T21:14:51.414Z,21.20
2017-08-17T21:17:19.657Z,21.20
2017-08-17T21:19:47.245Z,21.10
2017-08-17T21:22:15.530Z,21.20
2017-08-17T21:24:43.797Z,21.20
2017-08-17T21:27:12.080Z,21.20
2017-08-17T21:29:40.326Z,21.20
2017-08-17T21:32:07.883Z,21.20
2017-08-17T21:34:35.469Z,21.10
2017-08-17T21:37:03.757Z,21.00
2017-08-17T21:39:31.306Z,21.00
2017-08-17T21:42:00.466Z,21.00
2017-08-17T21:44:27.962Z,21.00
2017-08-17T21:46:55.532Z,21.00
2017-08-17T21:49:23.086Z,20.90
2017-08-17T21:51:51.353Z,20.80
2017-08-17T21:54:18.919Z,20.80
2017-08-17T21:56:46.441Z,20.90
2017-08-17T21:59:13.934Z,20.80
2017-08-17T22:01:42.211Z,20.70
2017-08-17T22:04:09.687Z,20.70
2017-08-17T22:06:37.233Z,20.40
2017-08-17T22:09:05.470Z,20.30
2017-08-17T22:11:32.959Z,20.30
2017-08-17T22:14:01.230Z,20.50
2017-08-17T22:16:29.494Z,20.50
2017-08-17T22:18:56.977Z,20.50
2017-08-17T22:21:24.525Z,20.60
2017-08-17T22:23:52.056Z,20.50
2017-08-17T22:26:19.643Z,20.60
2017-08-17T22:28:47.886Z,20.60
2017-08-17T22:31:15.482Z,20.60
2017-08-17T22:33:43.058Z,20.60
2017-08-17T22:36:11.309Z,20.50
2017-08-17T22:38:38.790Z,20.50
2017-08-17T22:41:06.291Z,20.40
2017-08-17T22:43:33.770Z,20.40
2017-08-17T22:46:01.367Z,20.40
2017-08-17T22:48:28.917Z,20.30
2017-08-17T22:50:56.463Z,20.30
2017-08-17T22:53:24.035Z,20.30
2017-08-17T22:55:51.585Z,20.30
2017-08-17T22:58:19.078Z,20.20
2017-08-17T23:00:46.598Z,20.30
2017-08-17T23:03:14.112Z,20.30
2017-08-17T23:05:41.636Z,20.20
2017-08-17T23:08:09.891Z,20.20
2017-08-17T23:10:37.464Z,20.10
2017-08-17T23:13:05.701Z,20.10
2017-08-17T23:15:33.172Z,20.10
2017-08-17T23:18:00.768Z,20.10
2017-08-17T23:20:28.269Z,20.10
2017-08-17T23:22:55.772Z,20.10
2017-08-17T23:25:24.061Z,20.10
2017-08-17T23:27:52.318Z,20.00
2017-08-17T23:30:19.882Z,20.00
2017-08-17T23:32:48.165Z,20.00
2017-08-17T23:35:15.856Z,20.00
2017-08-17T23:37:43.392Z,20.00
2017-08-17T23:40:11.650Z,19.80
2017-08-17T23:42:39.226Z,19.70
2017-08-17T23:45:06.726Z,19.80
2017-08-17T23:47:34.234Z,19.90
2017-08-17T23:50:02.508Z,19.80
2017-08-17T23:52:29.977Z,19.80
2017-08-17T23:54:58.282Z,19.70
2017-08-17T23:57:25.814Z,19.70
2017-08-17T23:59:54.076Z,19.80
